ASTASTORIA RGNL
METARs for airports near AST, sorted by distance:
N 0 nm 14' KAST 161205Z 11004KT 10SM SCT030 OVC039 14/10 A3005
E 40 nm 20' KKLS 161156Z 14010KT 10SM OVC070 10/09 A3012
S 44 nm 39' KTMK 161215Z 00000KT 10SM OVC046 11/09 A3010
SE 48 nm 58' KSPB 161153Z 00000KT 10SM OVC005 09/08 A3012
NE 48 nm 177' KCLS 161215Z 19008G14KT 10SM BKN040 OVC070 13/10 A3007
N 48 nm 17' KHQM 161204Z 17012G21KT 10SM SCT019 OVC044 15/11 A3002
SE 53 nm 207' KHIO 161153Z 00000KT 1/4SM FG VV002 08/08 A3013
SE 60 nm 28' KVUO 161153Z 00000KT 10SM CLR 08/07 A3014
NE 63 nm 207' KOLM 161154Z 19013KT 10SM SCT036 BKN043 OVC070 13/08 A3005
SE 63 nm 30' KPDX 161153Z 14005KT 10SM CLR 09/07 A3014
SE 65 nm 162' KMMV 161153Z 00000KT 1/2SM FG VV003 07/07 A3013
NE 71 nm 272' KSHN 161212Z 00000KT 7SM OVC029 12/11 A3002
SE 71 nm 199' KUAO 161204Z 00000KT 3SM BR FEW003 07/06 A3013
SE 71 nm 38' KTTD 161153Z 00000KT 10SM OVC002 07/06 A3014
NE 76 nm 301' KGRF 161158Z 11003KT 10SM BKN043 OVC055 13/08 A3005
NE 82 nm 322' KTCM 161158Z 18005KT 10SM OVC043 13/09 A3006
SE 83 nm 213' KSLE 161156Z 00000KT 3SM BR CLR 07/07 A3012
NE 85 nm 294' KTIW 161153Z 17004KT 10SM OVC046 12/09 A3006
NE 86 nm 537' KPLU 161215Z 00000KT 10SM BKN043 OVC060 15/06 A3006
NE 92 nm 444' KPWT 161214Z 00000KT 10SM OVC029 11/11 A3005
S 95 nm 160' KONP 161215Z 09006KT 10SM OVC044 09/08 A3012
TAFs for airports near AST, sorted by distance:
N 0 nm 14' KAST KAST 161130Z 1612/1712 13006KT P6SM BKN030 OVC050
  FM162100 19011G19KT P6SM BKN050
  FM170000 19009KT P6SM OVC060
  FM170600 18008KT P6SM -RA SCT015 OVC030
N 48 nm 17' KHQM TAF KHQM 161120Z 1612/1712 17013KT P6SM OVC020
  FM161800 18015G25KT P6SM -RA BKN020 OVC040
  FM170200 18010KT P6SM OVC030
  FM170600 15007KT P6SM OVC015
SE 53 nm 207' KHIO KHIO 161130Z 1612/1712 VRB03KT 1/4SM FG OVC002
  FM161600 VRB03KT 3SM BR BKN003
  FM161800 VRB03KT P6SM SCT180
  FM170500 16005KT P6SM BKN150
NE 63 nm 207' KOLM TAF KOLM 161120Z 1612/1712 20007KT P6SM BKN045 OVC060
  FM161500 18007KT P6SM OVC050
  FM170000 21005KT P6SM OVC100
  FM170600 22003KT P6SM OVC050
  FM171000 20005KT P6SM OVC020
SE 63 nm 30' KPDX KPDX 161130Z 1612/1712 12004KT P6SM SCT200
  FM170500 14005KT P6SM BKN150
SE 71 nm 199' KUAO KUAO 161130Z 1612/1712 00000KT 1SM BCFG SCT003
  FM161700 VRB03KT P6SM SCT200
  FM170500 18005KT P6SM BKN150
SE 71 nm 38' KTTD KTTD 161130Z 1612/1712 11003KT P6SM SCT002
  TEMPO 1612/1616 BKN002
  FM161700 11003KT P6SM FEW250
NE 76 nm 301' KGRF TAF KGRF 160500Z 1605/1711 14004KT 9999 BKN050 QNH3011INS
  BECMG 1609/1610 20005KT 9999 SCT040 BKN080 QNH3009INS
  BECMG 1617/1618 20010G18KT 9999 SCT030 QNH3001INS
  BECMG 1708/1709 20005KT 9999 BKN030 QNH2977INS TX17/1622Z TN10/1615Z
NE 82 nm 322' KTCM TAF KTCM 160500Z 1605/1711 20006KT 9999 OVC045 QNH3012INS
  BECMG 1611/1612 17005KT 9999 FEW060 BKN180 QNH3005INS
  BECMG 1617/1618 19010G15KT 9999 BKN100 OVC200 QNH3000INS
  BECMG 1710/1711 19006KT 9999 VCSH SCT015 OVC035 QNH2979INS TX18/1623Z TN08/1613Z
SE 83 nm 213' KSLE KSLE 161130Z 1612/1712 VRB04KT P6SM SKC
  TEMPO 1613/1616 3SM BR
  FM170500 16005KT P6SM BKN150
NE 92 nm 444' KPWT TAF KPWT 161120Z 1612/1712 22003KT P6SM OVC035
  FM161600 19018KT P6SM SCT015 BKN040 OVC080
  FM162300 19012KT P6SM -RA BKN015 OVC030
  FM170300 20004KT P6SM OVC050
  FM171000 VRB02KT P6SM OVC015
S 95 nm 160' KONP KONP 161130Z 1612/1712 11003KT P6SM BKN040
  FM161400 11005KT P6SM BKN030
  FM161700 16004KT P6SM SCT035 BKN150
  FM162000 21010KT P6SM BKN250
  FM170400 18010KT 3SM BR SCT008 OVC015
  FM170800 18010G18KT P6SM SCT015 OVC040

Shortcut to this page: http://wxbay.com.

Data may contain errors.